LFRH

Lorient South Brittany (Bretagne Sud) Airport

Lorient/Lann/Bihoué, France
TAF LFRH 162300Z 1700/1724 30005KT 9999 FEW045 BKN055 BECMG 1710/1712 24010G20KT TEMPO 1712/1721 CAVOK
Issued Valid From Valid To
Jul-16 @ 23:00 UTC
(an hour ago)
Jul-17 @ 00:00 UTC
(24 minutes ago)
Jul-18 @ 00:00 UTC
(in 24 hours)
Jul-17 @ 00:00 to Jul-17 @ 10:00
TAF LFRH 162300Z 1700/1724 30005KT 9999 FEW045 BKN055
Wind Visibility Clouds
300° at 5 knots 10,000+ meters
  • Few at 4,500' AGL
  • Broken at 5,500' AGL
Becoming Jul-17 @ 10:00 to Jul-18 @ 00:00
BECMG 1710/1712 24010G20KT
Wind Visibility Clouds
240° at 10 knots
 Gusting to 20 knots
10,000+ meters
  • Few at 4,500' AGL
  • Broken at 5,500' AGL
Temporary Jul-17 @ 12:00 to Jul-17 @ 21:00
TEMPO 1712/1721 CAVOK
Visibility Clouds Conditions
10,000+ meters
  • No significant clouds
TAF LFRH 162300Z 1700/1724 30005KT 9999 FEW045 BKN055 BECMG 1710/1712 24010G20KT TEMPO 1712/1721 CAVOK
Issued Jul-16 @ 23:00 UTC
(an hour ago)
Valid From Jul-17 @ 00:00 UTC
(24 minutes ago)
Valid To Jul-18 @ 00:00 UTC
(in 24 hours)
Jul-17 @ 00:00 - Jul-17 @ 10:00
Wind Visibility
300° at 5 knots 10,000+ meters
Clouds
  • Few at 4,500' AGL
  • Broken at 5,500' AGL
Becoming Jul-17 @ 10:00 - Jul-18 @ 00:00
Wind Visibility
240° at 10 knots
 Gusting to 20 knots
10,000+ meters
Clouds
  • Few at 4,500' AGL
  • Broken at 5,500' AGL
Temporary Jul-17 @ 12:00 - Jul-17 @ 21:00
Clouds
  • No significant clouds
Conditions